sensor_id;sensor_type;location;lat;lon;timestamp;temperature;humidity
16116;DHT22;8162;47.104;15.432;2023-02-28T01:34:40;0.20;60.00
16116;DHT22;8162;47.104;15.432;2023-02-28T01:37:40;0.20;60.40
16116;DHT22;8162;47.104;15.432;2023-02-28T01:40:41;0.20;60.60
16116;DHT22;8162;47.104;15.432;2023-02-28T01:46:42;0.20;60.80
16116;DHT22;8162;47.104;15.432;2023-02-28T01:49:43;0.20;60.90
16116;DHT22;8162;47.104;15.432;2023-02-28T01:52:45;0.20;60.90
16116;DHT22;8162;47.104;15.432;2023-02-28T01:55:50;0.20;60.90
16116;DHT22;8162;47.104;15.432;2023-02-28T01:58:53;0.20;60.90
16116;DHT22;8162;47.104;15.432;2023-02-28T02:01:55;0.30;60.10
16116;DHT22;8162;47.104;15.432;2023-02-28T02:05:04;0.30;60.20
16116;DHT22;8162;47.104;15.432;2023-02-28T02:08:09;0.30;60.00
16116;DHT22;8162;47.104;15.432;2023-02-28T02:11:12;0.40;59.60
16116;DHT22;8162;47.104;15.432;2023-02-28T02:17:50;0.40;61.00
16116;DHT22;8162;47.104;15.432;2023-02-28T02:24:58;0.40;60.90
16116;DHT22;8162;47.104;15.432;2023-02-28T02:41:18;0.30;61.40
16116;DHT22;8162;47.104;15.432;2023-02-28T02:44:30;0.40;61.10
16116;DHT22;8162;47.104;15.432;2023-02-28T02:47:33;0.40;60.20
16116;DHT22;8162;47.104;15.432;2023-02-28T02:54:16;0.40;61.20
16116;DHT22;8162;47.104;15.432;2023-02-28T02:57:30;0.40;60.30
16116;DHT22;8162;47.104;15.432;2023-02-28T03:00:42;0.40;60.30
16116;DHT22;8162;47.104;15.432;2023-02-28T03:03:44;0.40;60.70
16116;DHT22;8162;47.104;15.432;2023-02-28T03:06:45;0.40;61.50
16116;DHT22;8162;47.104;15.432;2023-02-28T03:09:56;0.40;61.80
16116;DHT22;8162;47.104;15.432;2023-02-28T03:26:19;0.50;61.90
16116;DHT22;8162;47.104;15.432;2023-02-28T03:29:35;0.50;61.40
16116;DHT22;8162;47.104;15.432;2023-02-28T03:32:53;0.50;61.80
16116;DHT22;8162;47.104;15.432;2023-02-28T03:36:05;0.50;61.70
16116;DHT22;8162;47.104;15.432;2023-02-28T03:39:09;0.40;62.30
16116;DHT22;8162;47.104;15.432;2023-02-28T03:42:20;0.40;61.50
16116;DHT22;8162;47.104;15.432;2023-02-28T03:45:25;0.40;61.30
16116;DHT22;8162;47.104;15.432;2023-02-28T03:49:17;0.50;61.10
16116;DHT22;8162;47.104;15.432;2023-02-28T03:51:58;0.50;61.30
16116;DHT22;8162;47.104;15.432;2023-02-28T03:55:03;0.40;61.90
16116;DHT22;8162;47.104;15.432;2023-02-28T03:58:30;0.40;61.00
16116;DHT22;8162;47.104;15.432;2023-02-28T04:01:42;0.50;60.40
16116;DHT22;8162;47.104;15.432;2023-02-28T04:04:43;0.50;60.50
16116;DHT22;8162;47.104;15.432;2023-02-28T04:07:48;0.40;61.00
16116;DHT22;8162;47.104;15.432;2023-02-28T04:10:59;0.40;61.10
16116;DHT22;8162;47.104;15.432;2023-02-28T04:14:02;0.40;60.50
16116;DHT22;8162;47.104;15.432;2023-02-28T04:17:02;0.40;60.30
16116;DHT22;8162;47.104;15.432;2023-02-28T04:20:03;0.40;59.90
16116;DHT22;8162;47.104;15.432;2023-02-28T04:23:09;0.40;60.20
16116;DHT22;8162;47.104;15.432;2023-02-28T04:26:10;0.40;61.00
16116;DHT22;8162;47.104;15.432;2023-02-28T04:29:12;0.40;62.20
16116;DHT22;8162;47.104;15.432;2023-02-28T04:32:13;0.40;61.20
16116;DHT22;8162;47.104;15.432;2023-02-28T04:35:14;0.40;60.50
16116;DHT22;8162;47.104;15.432;2023-02-28T04:38:15;0.40;60.70
16116;DHT22;8162;47.104;15.432;2023-02-28T04:41:16;0.40;60.20
16116;DHT22;8162;47.104;15.432;2023-02-28T04:44:17;0.40;59.90
16116;DHT22;8162;47.104;15.432;2023-02-28T04:47:18;0.40;60.00
16116;DHT22;8162;47.104;15.432;2023-02-28T04:50:19;0.30;60.30
16116;DHT22;8162;47.104;15.432;2023-02-28T04:53:20;0.30;60.50
16116;DHT22;8162;47.104;15.432;2023-02-28T04:56:21;0.40;60.50
16116;DHT22;8162;47.104;15.432;2023-02-28T04:59:22;0.30;60.70
16116;DHT22;8162;47.104;15.432;2023-02-28T05:02:23;0.40;60.60
16116;DHT22;8162;47.104;15.432;2023-02-28T05:05:24;0.40;60.60
16116;DHT22;8162;47.104;15.432;2023-02-28T05:08:24;0.50;60.20
16116;DHT22;8162;47.104;15.432;2023-02-28T05:11:31;0.40;60.10
16116;DHT22;8162;47.104;15.432;2023-02-28T05:14:35;0.40;60.70
16116;DHT22;8162;47.104;15.432;2023-02-28T05:17:37;0.40;61.40
16116;DHT22;8162;47.104;15.432;2023-02-28T05:20:37;0.30;61.40
16116;DHT22;8162;47.104;15.432;2023-02-28T05:23:38;0.30;61.90
16116;DHT22;8162;47.104;15.432;2023-02-28T05:26:42;0.30;62.20
16116;DHT22;8162;47.104;15.432;2023-02-28T05:29:43;0.30;61.80
16116;DHT22;8162;47.104;15.432;2023-02-28T05:32:44;0.30;61.70
16116;DHT22;8162;47.104;15.432;2023-02-28T05:35:49;0.40;61.00
16116;DHT22;8162;47.104;15.432;2023-02-28T05:38:51;0.40;60.60
16116;DHT22;8162;47.104;15.432;2023-02-28T05:41:51;0.40;60.70
16116;DHT22;8162;47.104;15.432;2023-02-28T05:44:52;0.50;60.00
16116;DHT22;8162;47.104;15.432;2023-02-28T05:47:54;0.50;59.40
16116;DHT22;8162;47.104;15.432;2023-02-28T05:50:54;0.50;59.20
16116;DHT22;8162;47.104;15.432;2023-02-28T05:54:01;0.60;59.00
16116;DHT22;8162;47.104;15.432;2023-02-28T05:57:02;0.60;59.20
16116;DHT22;8162;47.104;15.432;2023-02-28T06:00:03;0.60;60.40
16116;DHT22;8162;47.104;15.432;2023-02-28T06:03:04;0.60;60.60
16116;DHT22;8162;47.104;15.432;2023-02-28T06:06:05;0.60;60.20
16116;DHT22;8162;47.104;15.432;2023-02-28T06:09:06;0.60;60.20
16116;DHT22;8162;47.104;15.432;2023-02-28T06:12:07;0.60;60.00
16116;DHT22;8162;47.104;15.432;2023-02-28T06:15:12;0.60;59.80
16116;DHT22;8162;47.104;15.432;2023-02-28T06:45:33;0.70;60.30
16116;DHT22;8162;47.104;15.432;2023-02-28T06:48:34;0.80;60.30
16116;DHT22;8162;47.104;15.432;2023-02-28T06:51:37;0.80;59.70
16116;DHT22;8162;47.104;15.432;2023-02-28T06:54:39;1.00;60.30
16116;DHT22;8162;47.104;15.432;2023-02-28T06:57:39;1.00;60.10
16116;DHT22;8162;47.104;15.432;2023-02-28T07:00:44;1.00;60.40
16116;DHT22;8162;47.104;15.432;2023-02-28T07:03:46;1.00;59.80
16116;DHT22;8162;47.104;15.432;2023-02-28T07:06:47;1.10;59.60
16116;DHT22;8162;47.104;15.432;2023-02-28T10:25:19;1.10;59.30
16116;DHT22;8162;47.104;15.432;2023-02-28T10:28:20;4.00;51.40
16116;DHT22;8162;47.104;15.432;2023-02-28T10:31:21;4.30;49.80
16116;DHT22;8162;47.104;15.432;2023-02-28T10:34:22;4.50;49.30
16116;DHT22;8162;47.104;15.432;2023-02-28T10:37:22;4.70;50.00
16116;DHT22;8162;47.104;15.432;2023-02-28T10:43:24;4.90;47.90
16116;DHT22;8162;47.104;15.432;2023-02-28T10:46:33;5.00;48.20
16116;DHT22;8162;47.104;15.432;2023-02-28T10:49:34;5.00;47.90
16116;DHT22;8162;47.104;15.432;2023-02-28T10:52:39;5.00;48.00
16116;DHT22;8162;47.104;15.432;2023-02-28T10:55:40;5.00;46.80
16116;DHT22;8162;47.104;15.432;2023-02-28T11:02:01;5.50;46.60
16116;DHT22;8162;47.104;15.432;2023-02-28T11:05:02;5.60;47.60
16116;DHT22;8162;47.104;15.432;2023-02-28T11:08:22;5.70;47.00
16116;DHT22;8162;47.104;15.432;2023-02-28T11:11:25;5.60;45.10
16116;DHT22;8162;47.104;15.432;2023-02-28T11:14:29;5.50;45.70
16116;DHT22;8162;47.104;15.432;2023-02-28T11:17:31;5.50;45.20
16116;DHT22;8162;47.104;15.432;2023-02-28T11:20:33;5.50;45.90
16116;DHT22;8162;47.104;15.432;2023-02-28T11:23:36;5.70;44.70
16116;DHT22;8162;47.104;15.432;2023-02-28T11:26:44;5.60;46.70
16116;DHT22;8162;47.104;15.432;2023-02-28T11:29:47;5.60;46.20
16116;DHT22;8162;47.104;15.432;2023-02-28T11:32:49;5.80;45.70
16116;DHT22;8162;47.104;15.432;2023-02-28T11:35:51;5.80;45.30
16116;DHT22;8162;47.104;15.432;2023-02-28T11:38:55;5.90;45.50
16116;DHT22;8162;47.104;15.432;2023-02-28T11:42:39;6.10;44.90
16116;DHT22;8162;47.104;15.432;2023-02-28T12:02:08;6.50;44.60
16116;DHT22;8162;47.104;15.432;2023-02-28T12:08:40;6.50;45.40
16116;DHT22;8162;47.104;15.432;2023-02-28T12:11:55;6.10;44.70
16116;DHT22;8162;47.104;15.432;2023-02-28T12:21:58;6.10;45.40
16116;DHT22;8162;47.104;15.432;2023-02-28T12:28:10;6.30;45.20
16116;DHT22;8162;47.104;15.432;2023-02-28T12:31:22;6.30;45.00
16116;DHT22;8162;47.104;15.432;2023-02-28T12:34:47;6.30;45.70
16116;DHT22;8162;47.104;15.432;2023-02-28T12:37:57;6.40;45.50
16116;DHT22;8162;47.104;15.432;2023-02-28T12:41:12;6.40;45.30
16116;DHT22;8162;47.104;15.432;2023-02-28T12:44:37;6.50;47.00
16116;DHT22;8162;47.104;15.432;2023-02-28T12:47:42;6.80;46.00
16116;DHT22;8162;47.104;15.432;2023-02-28T12:50:45;6.90;44.80
16116;DHT22;8162;47.104;15.432;2023-02-28T13:00:36;6.80;45.40
16116;DHT22;8162;47.104;15.432;2023-02-28T13:07:07;6.90;44.70
16116;DHT22;8162;47.104;15.432;2023-02-28T13:10:11;6.80;44.90
16116;DHT22;8162;47.104;15.432;2023-02-28T13:13:17;6.90;45.40
16116;DHT22;8162;47.104;15.432;2023-02-28T13:16:18;6.80;45.80
16116;DHT22;8162;47.104;15.432;2023-02-28T13:19:20;7.10;46.00
16116;DHT22;8162;47.104;15.432;2023-02-28T13:22:41;7.50;44.20
16116;DHT22;8162;47.104;15.432;2023-02-28T13:29:04;7.80;43.20
16116;DHT22;8162;47.104;15.432;2023-02-28T13:32:32;7.80;43.50
16116;DHT22;8162;47.104;15.432;2023-02-28T13:35:43;7.70;44.10
16116;DHT22;8162;47.104;15.432;2023-02-28T13:38:50;7.80;44.80
16116;DHT22;8162;47.104;15.432;2023-02-28T13:41:52;7.80;43.20
16116;DHT22;8162;47.104;15.432;2023-02-28T13:45:21;7.80;43.10
16116;DHT22;8162;47.104;15.432;2023-02-28T13:48:25;7.60;43.30
16116;DHT22;8162;47.104;15.432;2023-02-28T13:51:40;7.50;43.80
16116;DHT22;8162;47.104;15.432;2023-02-28T14:05:05;7.70;44.00
16116;DHT22;8162;47.104;15.432;2023-02-28T14:08:16;8.80;43.50
16116;DHT22;8162;47.104;15.432;2023-02-28T14:11:28;9.80;40.20
16116;DHT22;8162;47.104;15.432;2023-02-28T14:17:37;13.10;34.70
16116;DHT22;8162;47.104;15.432;2023-02-28T14:20:40;14.00;33.10
16116;DHT22;8162;47.104;15.432;2023-02-28T15:17:08;13.50;32.00
16116;DHT22;8162;47.104;15.432;2023-02-28T15:20:13;12.50;33.70
16116;DHT22;8162;47.104;15.432;2023-02-28T15:23:15;12.40;34.60
16116;DHT22;8162;47.104;15.432;2023-02-28T15:26:20;12.30;34.40
16116;DHT22;8162;47.104;15.432;2023-02-28T15:29:23;12.10;34.00
16116;DHT22;8162;47.104;15.432;2023-02-28T15:32:33;11.10;35.40
16116;DHT22;8162;47.104;15.432;2023-02-28T15:35:34;10.30;36.50
16116;DHT22;8162;47.104;15.432;2023-02-28T15:38:36;10.10;37.60
16116;DHT22;8162;47.104;15.432;2023-02-28T15:41:37;10.00;37.80
16116;DHT22;8162;47.104;15.432;2023-02-28T15:44:38;10.00;37.90
16116;DHT22;8162;47.104;15.432;2023-02-28T15:47:39;10.00;38.30
16116;DHT22;8162;47.104;15.432;2023-02-28T15:50:40;9.70;38.40
16116;DHT22;8162;47.104;15.432;2023-02-28T15:53:48;9.50;39.00
16116;DHT22;8162;47.104;15.432;2023-02-28T15:56:52;9.20;39.40
16116;DHT22;8162;47.104;15.432;2023-02-28T16:15:29;8.80;40.20
16116;DHT22;8162;47.104;15.432;2023-02-28T16:18:31;6.50;45.50
16116;DHT22;8162;47.104;15.432;2023-02-28T16:21:32;6.20;45.40
16116;DHT22;8162;47.104;15.432;2023-02-28T16:24:32;5.90;45.90
16116;DHT22;8162;47.104;15.432;2023-02-28T16:27:36;5.80;46.30
16116;DHT22;8162;47.104;15.432;2023-02-28T16:30:37;5.50;46.90
16116;DHT22;8162;47.104;15.432;2023-02-28T16:33:38;5.30;47.80
16116;DHT22;8162;47.104;15.432;2023-02-28T16:36:39;5.00;48.50
16116;DHT22;8162;47.104;15.432;2023-02-28T16:39:42;4.90;49.10
16116;DHT22;8162;47.104;15.432;2023-02-28T16:42:51;4.70;49.30
16116;DHT22;8162;47.104;15.432;2023-02-28T16:45:55;4.60;50.10
16116;DHT22;8162;47.104;15.432;2023-02-28T16:48:57;4.50;50.20
16116;DHT22;8162;47.104;15.432;2023-02-28T16:51:58;4.40;50.70
16116;DHT22;8162;47.104;15.432;2023-02-28T16:54:58;4.30;52.10
16116;DHT22;8162;47.104;15.432;2023-02-28T16:58:01;4.30;52.60
16116;DHT22;8162;47.104;15.432;2023-02-28T17:01:03;4.20;52.70
16116;DHT22;8162;47.104;15.432;2023-02-28T17:04:04;4.20;53.30
16116;DHT22;8162;47.104;15.432;2023-02-28T17:07:06;4.20;54.00
16116;DHT22;8162;47.104;15.432;2023-02-28T17:10:21;4.10;54.40
16116;DHT22;8162;47.104;15.432;2023-02-28T17:13:22;4.10;53.00
16116;DHT22;8162;47.104;15.432;2023-02-28T17:16:27;4.00;54.00
16116;DHT22;8162;47.104;15.432;2023-02-28T17:19:29;4.00;53.40
16116;DHT22;8162;47.104;15.432;2023-02-28T17:22:30;4.00;53.00
16116;DHT22;8162;47.104;15.432;2023-02-28T17:25:31;3.90;53.00
16116;DHT22;8162;47.104;15.432;2023-02-28T17:28:32;3.90;53.70
16116;DHT22;8162;47.104;15.432;2023-02-28T17:31:33;3.90;54.70
16116;DHT22;8162;47.104;15.432;2023-02-28T17:34:39;3.90;54.90
16116;DHT22;8162;47.104;15.432;2023-02-28T17:37:42;3.90;54.70
16116;DHT22;8162;47.104;15.432;2023-02-28T17:40:43;3.90;55.10
16116;DHT22;8162;47.104;15.432;2023-02-28T17:43:44;3.70;55.50
16116;DHT22;8162;47.104;15.432;2023-02-28T17:46:46;3.70;56.00
16116;DHT22;8162;47.104;15.432;2023-02-28T17:49:47;3.70;56.20
16116;DHT22;8162;47.104;15.432;2023-02-28T17:52:48;3.70;56.20
16116;DHT22;8162;47.104;15.432;2023-02-28T17:55:51;3.60;56.30
16116;DHT22;8162;47.104;15.432;2023-02-28T17:58:53;3.60;56.80
16116;DHT22;8162;47.104;15.432;2023-02-28T18:01:55;3.50;57.20
16116;DHT22;8162;47.104;15.432;2023-02-28T18:04:56;3.50;57.20
16116;DHT22;8162;47.104;15.432;2023-02-28T18:07:58;3.70;58.20
16116;DHT22;8162;47.104;15.432;2023-02-28T18:10:59;3.70;57.10
16116;DHT22;8162;47.104;15.432;2023-02-28T18:14:00;3.60;56.90
16116;DHT22;8162;47.104;15.432;2023-02-28T18:17:01;3.50;57.10
16116;DHT22;8162;47.104;15.432;2023-02-28T18:20:02;3.50;57.40
16116;DHT22;8162;47.104;15.432;2023-02-28T18:23:05;3.50;57.90
16116;DHT22;8162;47.104;15.432;2023-02-28T18:26:07;3.50;58.20
16116;DHT22;8162;47.104;15.432;2023-02-28T18:29:17;3.40;58.90
16116;DHT22;8162;47.104;15.432;2023-02-28T18:32:18;3.40;59.20
16116;DHT22;8162;47.104;15.432;2023-02-28T18:35:19;3.40;59.30
16116;DHT22;8162;47.104;15.432;2023-02-28T18:38:34;3.40;59.00
16116;DHT22;8162;47.104;15.432;2023-02-28T18:41:35;3.30;59.50
16116;DHT22;8162;47.104;15.432;2023-02-28T18:44:37;3.30;59.30
16116;DHT22;8162;47.104;15.432;2023-02-28T18:47:38;3.30;59.80
16116;DHT22;8162;47.104;15.432;2023-02-28T18:50:39;3.30;59.20
16116;DHT22;8162;47.104;15.432;2023-02-28T18:53:42;3.30;59.20
16116;DHT22;8162;47.104;15.432;2023-02-28T18:56:44;3.30;59.30
16116;DHT22;8162;47.104;15.432;2023-02-28T18:59:45;3.30;59.20
16116;DHT22;8162;47.104;15.432;2023-02-28T19:02:46;3.20;59.40
16116;DHT22;8162;47.104;15.432;2023-02-28T19:05:47;3.20;59.20
16116;DHT22;8162;47.104;15.432;2023-02-28T19:08:56;3.30;59.40
16116;DHT22;8162;47.104;15.432;2023-02-28T19:11:57;3.20;59.90
16116;DHT22;8162;47.104;15.432;2023-02-28T19:14:58;3.10;60.60
16116;DHT22;8162;47.104;15.432;2023-02-28T19:18:00;3.10;60.60
16116;DHT22;8162;47.104;15.432;2023-02-28T19:21:01;3.10;60.40
16116;DHT22;8162;47.104;15.432;2023-02-28T19:24:03;3.10;60.70
16116;DHT22;8162;47.104;15.432;2023-02-28T19:27:04;3.10;61.10
16116;DHT22;8162;47.104;15.432;2023-02-28T19:30:05;3.10;61.10
16116;DHT22;8162;47.104;15.432;2023-02-28T19:33:07;3.00;61.20
16116;DHT22;8162;47.104;15.432;2023-02-28T19:36:10;3.00;61.40
16116;DHT22;8162;47.104;15.432;2023-02-28T19:39:12;3.00;60.90
16116;DHT22;8162;47.104;15.432;2023-02-28T19:42:16;3.00;60.00
16116;DHT22;8162;47.104;15.432;2023-02-28T19:45:17;3.00;60.60
16116;DHT22;8162;47.104;15.432;2023-02-28T19:48:18;3.00;60.90
16116;DHT22;8162;47.104;15.432;2023-02-28T19:51:24;3.10;61.10
16116;DHT22;8162;47.104;15.432;2023-02-28T19:54:27;3.10;61.20
16116;DHT22;8162;47.104;15.432;2023-02-28T19:57:29;3.10;61.70
16116;DHT22;8162;47.104;15.432;2023-02-28T20:00:30;3.10;61.80
16116;DHT22;8162;47.104;15.432;2023-02-28T20:03:32;3.00;61.80
16116;DHT22;8162;47.104;15.432;2023-02-28T20:06:33;2.90;61.90
16116;DHT22;8162;47.104;15.432;2023-02-28T20:09:35;2.90;62.00
16116;DHT22;8162;47.104;15.432;2023-02-28T20:12:37;2.90;62.20
16116;DHT22;8162;47.104;15.432;2023-02-28T20:15:38;2.90;61.60
16116;DHT22;8162;47.104;15.432;2023-02-28T20:18:41;2.90;61.50
16116;DHT22;8162;47.104;15.432;2023-02-28T20:21:44;2.90;62.00
16116;DHT22;8162;47.104;15.432;2023-02-28T20:24:46;2.90;62.00
16116;DHT22;8162;47.104;15.432;2023-02-28T20:27:48;2.90;61.10
16116;DHT22;8162;47.104;15.432;2023-02-28T20:30:49;2.90;60.60
16116;DHT22;8162;47.104;15.432;2023-02-28T20:33:51;2.90;60.90
16116;DHT22;8162;47.104;15.432;2023-02-28T20:36:52;2.90;61.30
16116;DHT22;8162;47.104;15.432;2023-02-28T20:39:56;2.80;61.30
16116;DHT22;8162;47.104;15.432;2023-02-28T20:42:57;2.80;61.50
16116;DHT22;8162;47.104;15.432;2023-02-28T20:45:59;2.80;61.40
16116;DHT22;8162;47.104;15.432;2023-02-28T20:49:03;2.70;61.80
16116;DHT22;8162;47.104;15.432;2023-02-28T20:52:04;2.70;62.00
16116;DHT22;8162;47.104;15.432;2023-02-28T20:55:07;2.70;62.10
16116;DHT22;8162;47.104;15.432;2023-02-28T20:58:09;2.70;62.30
16116;DHT22;8162;47.104;15.432;2023-02-28T21:01:16;2.70;62.60
16116;DHT22;8162;47.104;15.432;2023-02-28T21:04:18;2.70;62.10
16116;DHT22;8162;47.104;15.432;2023-02-28T21:07:18;2.70;62.80
16116;DHT22;8162;47.104;15.432;2023-02-28T21:10:19;2.70;62.50
16116;DHT22;8162;47.104;15.432;2023-02-28T21:13:20;2.70;62.50
16116;DHT22;8162;47.104;15.432;2023-02-28T21:16:23;2.60;62.90
16116;DHT22;8162;47.104;15.432;2023-02-28T21:19:24;2.60;63.00
16116;DHT22;8162;47.104;15.432;2023-02-28T21:22:25;2.60;63.20
16116;DHT22;8162;47.104;15.432;2023-02-28T21:25:26;2.60;63.20
16116;DHT22;8162;47.104;15.432;2023-02-28T21:28:27;2.50;63.20
16116;DHT22;8162;47.104;15.432;2023-02-28T21:31:30;2.50;63.70
16116;DHT22;8162;47.104;15.432;2023-02-28T21:34:32;2.50;63.50
16116;DHT22;8162;47.104;15.432;2023-02-28T21:37:33;2.50;63.40
16116;DHT22;8162;47.104;15.432;2023-02-28T21:40:36;2.50;63.60
16116;DHT22;8162;47.104;15.432;2023-02-28T21:43:37;2.50;63.50
16116;DHT22;8162;47.104;15.432;2023-02-28T21:46:38;2.50;63.50
16116;DHT22;8162;47.104;15.432;2023-02-28T21:49:39;2.50;63.80
16116;DHT22;8162;47.104;15.432;2023-02-28T21:52:39;2.50;63.60
16116;DHT22;8162;47.104;15.432;2023-02-28T21:55:41;2.40;63.50
16116;DHT22;8162;47.104;15.432;2023-02-28T21:58:41;2.40;63.60
16116;DHT22;8162;47.104;15.432;2023-02-28T22:01:43;2.40;63.40
16116;DHT22;8162;47.104;15.432;2023-02-28T22:04:44;2.40;63.60
16116;DHT22;8162;47.104;15.432;2023-02-28T22:07:45;2.40;63.50
16116;DHT22;8162;47.104;15.432;2023-02-28T22:10:46;2.40;63.20
16116;DHT22;8162;47.104;15.432;2023-02-28T22:13:47;2.40;63.60
16116;DHT22;8162;47.104;15.432;2023-02-28T22:16:48;2.40;63.40
16116;DHT22;8162;47.104;15.432;2023-02-28T22:19:49;2.40;63.60
16116;DHT22;8162;47.104;15.432;2023-02-28T22:22:49;2.30;63.70
16116;DHT22;8162;47.104;15.432;2023-02-28T22:25:50;2.30;64.30
16116;DHT22;8162;47.104;15.432;2023-02-28T22:28:53;2.30;64.30
16116;DHT22;8162;47.104;15.432;2023-02-28T22:31:53;2.30;64.30
16116;DHT22;8162;47.104;15.432;2023-02-28T22:34:54;2.30;64.10
16116;DHT22;8162;47.104;15.432;2023-02-28T22:37:55;2.20;64.00
16116;DHT22;8162;47.104;15.432;2023-02-28T22:40:56;2.20;64.10
16116;DHT22;8162;47.104;15.432;2023-02-28T22:43:59;2.20;64.20
16116;DHT22;8162;47.104;15.432;2023-02-28T22:47:00;2.20;64.60
16116;DHT22;8162;47.104;15.432;2023-02-28T22:50:01;2.20;64.50
16116;DHT22;8162;47.104;15.432;2023-02-28T22:53:02;2.20;65.00
16116;DHT22;8162;47.104;15.432;2023-02-28T22:56:03;2.10;65.10
16116;DHT22;8162;47.104;15.432;2023-02-28T22:59:04;2.10;65.20
16116;DHT22;8162;47.104;15.432;2023-02-28T23:02:04;2.10;65.40
16116;DHT22;8162;47.104;15.432;2023-02-28T23:05:05;2.10;65.40
16116;DHT22;8162;47.104;15.432;2023-02-28T23:08:06;2.10;65.20
16116;DHT22;8162;47.104;15.432;2023-02-28T23:11:07;2.00;65.30
16116;DHT22;8162;47.104;15.432;2023-02-28T23:14:09;1.90;65.70
16116;DHT22;8162;47.104;15.432;2023-02-28T23:17:12;1.80;65.90
16116;DHT22;8162;47.104;15.432;2023-02-28T23:20:18;1.80;65.80
16116;DHT22;8162;47.104;15.432;2023-02-28T23:23:19;1.70;65.90
16116;DHT22;8162;47.104;15.432;2023-02-28T23:26:19;1.70;66.20
16116;DHT22;8162;47.104;15.432;2023-02-28T23:29:21;1.80;66.70
16116;DHT22;8162;47.104;15.432;2023-02-28T23:32:22;1.70;66.90
16116;DHT22;8162;47.104;15.432;2023-02-28T23:35:23;1.70;67.30
16116;DHT22;8162;47.104;15.432;2023-02-28T23:38:23;1.60;67.60
16116;DHT22;8162;47.104;15.432;2023-02-28T23:41:25;1.60;67.60
16116;DHT22;8162;47.104;15.432;2023-02-28T23:44:26;1.60;67.40
16116;DHT22;8162;47.104;15.432;2023-02-28T23:47:26;1.60;67.50
16116;DHT22;8162;47.104;15.432;2023-02-28T23:50:27;1.50;68.00
16116;DHT22;8162;47.104;15.432;2023-02-28T23:53:31;1.50;68.10
16116;DHT22;8162;47.104;15.432;2023-02-28T23:56:33;1.40;68.10
16116;DHT22;8162;47.104;15.432;2023-02-28T23:59:34;1.40;68.70
